createdAt,value
2018-12-06T11:00:48.389Z,44.00
2018-12-06T11:01:46.602Z,44.00
2018-12-06T11:02:46.591Z,48.00
2018-12-06T11:03:46.581Z,48.00
2018-12-06T11:04:46.571Z,52.00
2018-12-06T11:05:46.558Z,52.00
2018-12-06T11:06:46.548Z,56.00
2018-12-06T11:07:46.536Z,60.00
2018-12-06T11:08:46.524Z,64.00
2018-12-06T11:09:46.514Z,64.00
2018-12-06T11:10:46.502Z,68.00
2018-12-06T11:11:46.783Z,68.00
2018-12-06T11:12:46.481Z,64.00
2018-12-06T11:13:46.470Z,68.00
2018-12-06T11:14:46.458Z,68.00
2018-12-06T11:15:46.446Z,72.00
2018-12-06T11:16:46.436Z,68.00
2018-12-06T11:17:46.427Z,68.00
2018-12-06T11:18:46.414Z,60.00
2018-12-06T11:19:46.402Z,60.00
2018-12-06T11:20:46.392Z,56.00
2018-12-06T11:21:46.381Z,56.00
2018-12-06T11:22:46.378Z,60.00
2018-12-06T11:23:47.729Z,60.00
2018-12-06T11:24:46.359Z,60.00
2018-12-06T11:25:46.338Z,64.00
2018-12-06T11:26:46.326Z,60.00
2018-12-06T11:27:46.318Z,60.00
2018-12-06T11:28:46.324Z,60.00
2018-12-06T11:29:46.292Z,64.00
2018-12-06T11:30:46.283Z,68.00
2018-12-06T11:31:46.269Z,72.00
2018-12-06T11:32:46.258Z,72.00
2018-12-06T11:33:46.528Z,76.00
2018-12-06T11:34:46.237Z,76.00
2018-12-06T11:35:46.226Z,80.00
2018-12-06T11:36:46.215Z,84.00
2018-12-06T11:37:46.204Z,84.00
2018-12-06T11:38:46.192Z,76.00
2018-12-06T11:39:46.186Z,76.00
2018-12-06T11:40:46.173Z,72.00
2018-12-06T11:41:46.161Z,68.00
2018-12-06T11:42:46.149Z,60.00
2018-12-06T11:43:46.138Z,60.00
2018-12-06T11:44:46.135Z,60.00
2018-12-06T11:45:46.114Z,56.00
2018-12-06T11:46:46.104Z,56.00
2018-12-06T11:47:46.099Z,52.00
2018-12-06T11:48:46.084Z,56.00
2018-12-06T11:49:46.073Z,60.00
2018-12-06T11:50:46.063Z,60.00
2018-12-06T11:51:46.049Z,60.00
2018-12-06T11:52:46.041Z,64.00
2018-12-06T11:53:46.028Z,64.00
2018-12-06T11:54:46.016Z,60.00
2018-12-06T11:55:46.014Z,56.00
2018-12-06T11:56:45.993Z,52.00
2018-12-06T11:57:45.983Z,56.00
2018-12-06T11:58:45.972Z,52.00
2018-12-06T11:59:45.960Z,52.00
2018-12-06T12:00:45.963Z,52.00
2018-12-06T12:01:45.942Z,52.00
2018-12-06T12:02:45.927Z,52.00
2018-12-06T12:03:45.918Z,48.00
2018-12-06T12:04:45.907Z,48.00
2018-12-06T12:05:45.897Z,48.00
2018-12-06T12:06:45.894Z,52.00
2018-12-06T12:07:45.873Z,56.00
2018-12-06T12:08:45.862Z,56.00
2018-12-06T12:09:45.851Z,56.00
2018-12-06T12:10:45.840Z,56.00
2018-12-06T12:11:45.831Z,52.00
2018-12-06T12:12:45.824Z,52.00
2018-12-06T12:13:45.807Z,52.00
2018-12-06T12:14:45.796Z,44.00
2018-12-06T12:15:45.783Z,44.00
2018-12-06T12:16:45.774Z,40.00
2018-12-06T12:17:45.772Z,36.00
2018-12-06T12:18:45.752Z,32.00
2018-12-06T12:19:45.744Z,32.00
2018-12-06T12:20:45.732Z,32.00
2018-12-06T12:21:45.721Z,32.00
2018-12-06T12:22:45.709Z,32.00
2018-12-06T12:23:45.700Z,32.00
2018-12-06T12:24:45.686Z,32.00
2018-12-06T12:25:45.674Z,32.00
2018-12-06T12:26:45.665Z,32.00
2018-12-06T12:27:45.653Z,36.00
2018-12-06T12:28:45.647Z,36.00
2018-12-06T12:29:45.631Z,32.00
2018-12-06T12:30:45.620Z,36.00
2018-12-06T12:31:45.607Z,36.00
2018-12-06T12:32:45.597Z,40.00
2018-12-06T12:33:45.586Z,40.00
2018-12-06T12:34:45.582Z,44.00
2018-12-06T12:35:45.564Z,48.00
2018-12-06T12:36:45.555Z,48.00
2018-12-06T12:37:45.541Z,48.00
2018-12-06T12:38:45.535Z,48.00
2018-12-06T12:39:45.531Z,44.00
2018-12-06T12:40:45.510Z,44.00
2018-12-06T12:41:45.498Z,44.00
2018-12-06T12:42:45.489Z,44.00
2018-12-06T12:43:45.474Z,36.00
2018-12-06T12:44:45.464Z,36.00
2018-12-06T12:45:45.455Z,32.00
2018-12-06T12:46:45.442Z,32.00
2018-12-06T12:47:45.430Z,32.00
2018-12-06T12:48:45.420Z,32.00
2018-12-06T12:49:45.449Z,28.00
2018-12-06T12:50:45.407Z,24.00
2018-12-06T12:51:45.390Z,24.00
2018-12-06T12:52:45.376Z,24.00
2018-12-06T12:53:45.365Z,24.00
2018-12-06T12:54:45.352Z,24.00
2018-12-06T12:55:45.345Z,24.00
2018-12-06T12:56:45.334Z,28.00
2018-12-06T12:57:45.321Z,24.00
2018-12-06T12:58:45.309Z,24.00
2018-12-06T12:59:45.298Z,24.00
2018-12-06T13:00:45.288Z,16.00
2018-12-06T13:01:45.285Z,20.00
2018-12-06T13:02:45.266Z,16.00
2018-12-06T13:03:45.255Z,16.00
2018-12-06T13:04:45.243Z,12.00
2018-12-06T13:05:45.232Z,16.00
2018-12-06T13:06:45.252Z,12.00
2018-12-06T13:07:45.211Z,12.00
2018-12-06T13:08:45.199Z,12.00
2018-12-06T13:09:45.188Z,16.00
2018-12-06T13:10:45.178Z,12.00
2018-12-06T13:11:45.172Z,12.00
2018-12-06T13:12:45.162Z,12.00
2018-12-06T13:13:45.144Z,12.00
2018-12-06T13:14:45.132Z,12.00
2018-12-06T13:15:45.122Z,12.00
2018-12-06T13:16:45.147Z,12.00
2018-12-06T13:17:45.100Z,12.00
2018-12-06T13:18:45.169Z,12.00
2018-12-06T13:19:45.080Z,12.00
2018-12-06T13:20:45.066Z,12.00
2018-12-06T13:21:45.055Z,12.00
2018-12-06T13:22:45.045Z,12.00
2018-12-06T13:23:45.368Z,12.00
2018-12-06T13:24:45.042Z,8.00
2018-12-06T13:25:45.011Z,8.00
2018-12-06T13:26:45.001Z,12.00
2018-12-06T13:27:44.989Z,8.00
2018-12-06T13:28:44.979Z,8.00
2018-12-06T13:29:44.969Z,12.00
2018-12-06T13:30:44.956Z,12.00
2018-12-06T13:31:44.945Z,12.00
2018-12-06T13:32:44.936Z,12.00
2018-12-06T13:33:44.924Z,12.00
2018-12-06T13:34:44.952Z,12.00
2018-12-06T13:35:44.901Z,12.00
2018-12-06T13:36:44.889Z,12.00
2018-12-06T13:37:44.879Z,12.00
2018-12-06T13:38:44.867Z,16.00
2018-12-06T13:39:44.888Z,16.00
2018-12-06T13:40:44.847Z,12.00
2018-12-06T13:41:44.834Z,12.00
2018-12-06T13:42:44.825Z,12.00
2018-12-06T13:43:44.812Z,12.00
2018-12-06T13:44:44.802Z,12.00
2018-12-06T13:45:44.799Z,12.00
2018-12-06T13:46:44.779Z,8.00
2018-12-06T13:47:44.768Z,8.00
2018-12-06T13:48:44.758Z,12.00
2018-12-06T13:49:44.745Z,12.00
2018-12-06T13:50:44.751Z,12.00
2018-12-06T13:51:44.749Z,12.00
2018-12-06T13:52:44.711Z,12.00
2018-12-06T13:53:44.701Z,8.00
2018-12-06T13:54:44.690Z,8.00
2018-12-06T13:55:44.684Z,4.00
2018-12-06T13:56:44.676Z,4.00
2018-12-06T13:57:44.662Z,8.00
2018-12-06T13:58:44.647Z,8.00
2018-12-06T13:59:44.634Z,8.00
2018-12-06T14:00:44.805Z,8.00
2018-12-06T14:01:44.614Z,8.00
2018-12-06T14:02:44.604Z,8.00
2018-12-06T14:03:44.591Z,8.00
2018-12-06T14:04:44.580Z,8.00
2018-12-06T14:05:44.569Z,4.00
2018-12-06T14:06:44.558Z,4.00
2018-12-06T14:07:44.554Z,4.00
2018-12-06T14:08:44.537Z,8.00
2018-12-06T14:09:44.528Z,8.00
2018-12-06T14:10:44.513Z,8.00
2018-12-06T14:11:44.504Z,8.00
2018-12-06T14:12:44.491Z,8.00
2018-12-06T14:13:44.483Z,8.00
2018-12-06T14:14:44.469Z,8.00
2018-12-06T14:15:44.458Z,4.00
2018-12-06T14:16:44.447Z,4.00
2018-12-06T14:17:44.445Z,4.00
2018-12-06T14:18:44.434Z,4.00
2018-12-06T14:19:44.416Z,4.00
2018-12-06T14:20:44.403Z,4.00
2018-12-06T14:21:44.393Z,8.00
2018-12-06T14:22:44.380Z,4.00
2018-12-06T14:23:44.373Z,4.00
2018-12-06T14:24:44.361Z,4.00
2018-12-06T14:25:44.348Z,8.00
2018-12-06T14:26:44.336Z,4.00
2018-12-06T14:27:44.325Z,4.00
2018-12-06T14:28:44.315Z,4.00
2018-12-06T14:29:44.311Z,4.00
2018-12-06T14:30:44.293Z,4.00
2018-12-06T14:31:44.282Z,4.00
2018-12-06T14:32:44.766Z,4.00
2018-12-06T14:33:44.260Z,4.00
2018-12-06T14:34:44.295Z,0.00
2018-12-06T14:35:44.240Z,0.00
2018-12-06T14:36:44.306Z,0.00
2018-12-06T14:37:44.215Z,0.00
2018-12-06T14:38:44.207Z,0.00
2018-12-06T14:39:44.193Z,0.00
2018-12-06T14:40:44.192Z,0.00
2018-12-06T14:41:44.171Z,0.00
2018-12-06T14:42:44.160Z,0.00
2018-12-06T14:43:44.148Z,0.00
2018-12-06T14:44:44.139Z,0.00
2018-12-06T14:45:44.130Z,0.00
2018-12-06T14:46:44.119Z,0.00
2018-12-06T14:47:44.138Z,0.00
2018-12-06T14:48:44.095Z,0.00
2018-12-06T14:49:44.086Z,0.00
2018-12-06T14:50:44.073Z,0.00
2018-12-06T14:51:44.069Z,0.00
2018-12-06T14:52:44.052Z,0.00
2018-12-06T14:53:44.037Z,0.00
2018-12-06T14:54:44.027Z,0.00
2018-12-06T14:55:44.017Z,0.00
2018-12-06T14:56:44.005Z,0.00
2018-12-06T14:57:43.996Z,0.00
2018-12-06T14:58:43.984Z,0.00
2018-12-06T14:59:43.971Z,0.00
2018-12-06T15:00:43.962Z,0.00
2018-12-06T15:01:43.950Z,0.00
2018-12-06T15:02:43.950Z,0.00
2018-12-06T15:03:43.931Z,0.00
2018-12-06T15:04:43.915Z,0.00
2018-12-06T15:05:43.907Z,0.00
2018-12-06T15:06:43.896Z,0.00
2018-12-06T15:07:43.886Z,0.00
2018-12-06T15:08:43.874Z,0.00
2018-12-06T15:09:43.863Z,0.00
2018-12-06T15:10:43.855Z,0.00
2018-12-06T15:11:43.848Z,0.00
2018-12-06T15:12:43.830Z,0.00
2018-12-06T15:13:43.826Z,0.00
2018-12-06T15:14:43.807Z,0.00
2018-12-06T15:15:43.863Z,0.00
2018-12-06T15:16:43.784Z,0.00
2018-12-06T15:17:43.775Z,0.00
2018-12-06T15:18:43.763Z,0.00
2018-12-06T15:19:43.752Z,0.00
2018-12-06T15:20:43.741Z,0.00
2018-12-06T15:21:43.729Z,0.00
2018-12-06T15:22:43.718Z,0.00
2018-12-06T15:23:43.706Z,0.00
2018-12-06T15:24:43.702Z,0.00
2018-12-06T15:25:43.684Z,0.00
2018-12-06T15:26:43.672Z,0.00
2018-12-06T15:27:43.670Z,0.00
2018-12-06T15:28:43.652Z,0.00
2018-12-06T15:29:43.640Z,0.00
2018-12-06T15:30:43.631Z,0.00
2018-12-06T15:31:43.620Z,0.00
2018-12-06T15:32:43.607Z,0.00
2018-12-06T15:33:43.596Z,0.00
2018-12-06T15:34:43.585Z,0.00
2018-12-06T15:35:43.580Z,0.00
2018-12-06T15:36:43.563Z,0.00
2018-12-06T15:37:43.552Z,0.00
2018-12-06T15:38:43.541Z,0.00
2018-12-06T15:39:43.530Z,0.00
2018-12-06T15:40:43.519Z,0.00
2018-12-06T15:41:43.513Z,0.00
2018-12-06T15:42:43.496Z,0.00
2018-12-06T15:43:43.487Z,0.00
2018-12-06T15:44:43.474Z,0.00
2018-12-06T15:45:43.467Z,0.00
2018-12-06T15:46:43.459Z,0.00
2018-12-06T15:47:43.441Z,0.00
2018-12-06T15:48:43.430Z,0.00
2018-12-06T15:49:43.419Z,0.00
2018-12-06T15:50:43.408Z,0.00
2018-12-06T15:51:43.397Z,0.00
2018-12-06T15:52:43.392Z,0.00
2018-12-06T15:53:43.376Z,0.00
2018-12-06T15:54:43.363Z,0.00
2018-12-06T15:55:43.353Z,0.00
2018-12-06T15:56:43.341Z,0.00
2018-12-06T15:57:43.341Z,0.00
2018-12-06T15:58:43.321Z,0.00
2018-12-06T15:59:43.308Z,0.00
2018-12-06T16:00:43.298Z,0.00
2018-12-06T16:01:43.288Z,0.00
2018-12-06T16:02:43.353Z,0.00
2018-12-06T16:03:43.274Z,0.00
2018-12-06T16:04:43.254Z,0.00
2018-12-06T16:05:43.563Z,0.00
2018-12-06T16:06:43.231Z,0.00
2018-12-06T16:07:43.222Z,0.00
2018-12-06T16:08:43.215Z,0.00
2018-12-06T16:09:43.200Z,0.00
2018-12-06T16:10:43.191Z,0.00
2018-12-06T16:11:43.179Z,0.00
2018-12-06T16:12:43.164Z,0.00
2018-12-06T16:13:43.154Z,0.00
2018-12-06T16:14:43.146Z,0.00
2018-12-06T16:15:43.131Z,0.00
2018-12-06T16:16:43.120Z,0.00
2018-12-06T16:17:43.113Z,0.00
2018-12-06T16:18:43.101Z,0.00
2018-12-06T16:19:43.411Z,0.00
2018-12-06T16:20:43.077Z,0.00
2018-12-06T16:21:43.066Z,0.00
2018-12-06T16:22:43.056Z,0.00
2018-12-06T16:23:43.045Z,0.00
2018-12-06T16:24:43.035Z,0.00
2018-12-06T16:25:43.023Z,0.00
2018-12-06T16:26:43.011Z,0.00
2018-12-06T16:27:42.998Z,0.00
2018-12-06T16:28:42.988Z,0.00
2018-12-06T16:29:51.195Z,0.00
2018-12-06T16:30:43.984Z,0.00
2018-12-06T16:31:42.955Z,0.00
2018-12-06T16:32:42.947Z,0.00
2018-12-06T16:33:42.932Z,0.00
2018-12-06T16:34:42.920Z,0.00
2018-12-06T16:35:42.909Z,0.00
2018-12-06T16:36:42.900Z,0.00
2018-12-06T16:37:42.889Z,0.00
2018-12-06T16:38:42.876Z,0.00
2018-12-06T16:39:42.866Z,0.00
2018-12-06T16:40:42.924Z,0.00
2018-12-06T16:41:42.851Z,0.00
2018-12-06T16:42:42.836Z,0.00
2018-12-06T16:43:42.821Z,0.00
2018-12-06T16:44:42.811Z,0.00
2018-12-06T16:45:42.800Z,0.00
2018-12-06T16:46:42.790Z,0.00
2018-12-06T16:47:42.786Z,0.00
2018-12-06T16:48:42.765Z,0.00
2018-12-06T16:49:42.755Z,0.00
2018-12-06T16:50:42.744Z,0.00
2018-12-06T16:51:42.733Z,0.00
2018-12-06T16:52:43.047Z,0.00
2018-12-06T16:53:42.712Z,0.00
2018-12-06T16:54:42.700Z,0.00
2018-12-06T16:55:42.689Z,0.00
2018-12-06T16:56:42.678Z,0.00
2018-12-06T16:57:42.667Z,0.00
2018-12-06T16:58:42.658Z,0.00
2018-12-06T16:59:42.645Z,0.00
2018-12-06T17:00:42.635Z,0.00
2018-12-06T17:01:42.633Z,0.00
2018-12-06T17:02:42.611Z,0.00
2018-12-06T17:03:42.614Z,0.00
2018-12-06T17:04:42.594Z,0.00
2018-12-06T17:05:42.581Z,0.00
2018-12-06T17:06:42.629Z,0.00
2018-12-06T17:07:42.556Z,0.00
2018-12-06T17:08:42.545Z,0.00
2018-12-06T17:09:42.541Z,0.00
2018-12-06T17:10:42.523Z,0.00
2018-12-06T17:11:42.513Z,0.00
2018-12-06T17:12:42.500Z,0.00
2018-12-06T17:13:42.490Z,0.00
2018-12-06T17:14:42.486Z,0.00
2018-12-06T17:15:42.467Z,0.00
2018-12-06T17:16:42.507Z,0.00
2018-12-06T17:17:42.445Z,0.00
2018-12-06T17:18:42.437Z,0.00
2018-12-06T17:19:42.423Z,0.00
2018-12-06T17:20:42.415Z,0.00
2018-12-06T17:21:42.403Z,0.00
2018-12-06T17:22:42.390Z,0.00
2018-12-06T17:23:42.378Z,0.00
2018-12-06T17:24:42.368Z,0.00
2018-12-06T17:25:42.364Z,0.00
2018-12-06T17:26:42.347Z,0.00
2018-12-06T17:27:42.338Z,0.00
2018-12-06T17:28:42.323Z,0.00
2018-12-06T17:29:42.313Z,0.00
2018-12-06T17:30:42.302Z,0.00
2018-12-06T17:31:43.630Z,0.00
2018-12-06T17:32:42.280Z,0.00
2018-12-06T17:33:42.269Z,0.00
2018-12-06T17:34:42.262Z,0.00
2018-12-06T17:35:42.247Z,0.00
2018-12-06T17:36:42.259Z,0.00
2018-12-06T17:37:42.225Z,0.00
2018-12-06T17:38:42.224Z,0.00
2018-12-06T17:39:42.203Z,0.00
2018-12-06T17:40:42.191Z,0.00
2018-12-06T17:41:42.186Z,0.00
2018-12-06T17:42:42.172Z,0.00
2018-12-06T17:43:42.160Z,0.00
2018-12-06T17:44:42.147Z,0.00
2018-12-06T17:45:42.159Z,0.00
2018-12-06T17:46:42.127Z,0.00
2018-12-06T17:47:42.122Z,0.00
2018-12-06T17:48:42.104Z,0.00
2018-12-06T17:49:42.092Z,0.00
2018-12-06T17:50:42.082Z,0.00
2018-12-06T17:51:42.070Z,0.00
2018-12-06T17:52:42.060Z,0.00
2018-12-06T17:53:42.050Z,0.00
2018-12-06T17:54:42.040Z,0.00
2018-12-06T17:55:42.030Z,0.00
2018-12-06T17:56:42.016Z,0.00
2018-12-06T17:57:42.005Z,0.00
2018-12-06T17:58:42.002Z,0.00
2018-12-06T17:59:41.981Z,0.00
2018-12-06T18:00:41.971Z,0.00
2018-12-06T18:01:41.959Z,0.00
2018-12-06T18:02:41.948Z,0.00
2018-12-06T18:03:41.938Z,0.00
2018-12-06T18:04:41.928Z,0.00
2018-12-06T18:05:41.915Z,0.00
2018-12-06T18:06:41.906Z,0.00
2018-12-06T18:07:41.895Z,0.00
2018-12-06T18:08:41.883Z,0.00
2018-12-06T18:09:41.884Z,0.00
2018-12-06T18:10:41.863Z,0.00
2018-12-06T18:11:41.848Z,0.00
2018-12-06T18:12:41.837Z,0.00
2018-12-06T18:13:41.827Z,0.00
2018-12-06T18:14:41.820Z,0.00
2018-12-06T18:15:41.808Z,0.00
2018-12-06T18:16:41.798Z,0.00
2018-12-06T18:17:41.785Z,0.00
2018-12-06T18:18:41.773Z,0.00
2018-12-06T18:19:41.762Z,0.00
2018-12-06T18:20:41.757Z,0.00
2018-12-06T18:21:41.740Z,0.00
2018-12-06T18:22:41.727Z,0.00
2018-12-06T18:23:41.717Z,0.00
2018-12-06T18:24:41.712Z,0.00
2018-12-06T18:25:41.695Z,0.00
2018-12-06T18:26:41.685Z,0.00
2018-12-06T18:27:41.760Z,0.00
2018-12-06T18:28:41.661Z,0.00
2018-12-06T18:29:41.650Z,0.00
2018-12-06T18:30:41.639Z,0.00
2018-12-06T18:31:41.958Z,0.00
2018-12-06T18:32:41.619Z,0.00
2018-12-06T18:33:41.605Z,0.00
2018-12-06T18:34:41.595Z,0.00
2018-12-06T18:35:41.584Z,0.00
2018-12-06T18:36:41.574Z,0.00
2018-12-06T18:37:41.564Z,0.00
2018-12-06T18:38:41.557Z,0.00
2018-12-06T18:39:41.539Z,0.00
2018-12-06T18:40:41.530Z,0.00
2018-12-06T18:41:41.517Z,0.00
2018-12-06T18:42:41.527Z,0.00
2018-12-06T18:43:41.496Z,0.00
2018-12-06T18:44:41.484Z,0.00
2018-12-06T18:45:41.474Z,0.00
2018-12-06T18:46:41.464Z,0.00
2018-12-06T18:47:41.451Z,0.00
2018-12-06T18:48:41.443Z,0.00
2018-12-06T18:49:41.428Z,0.00
2018-12-06T18:50:41.418Z,0.00
2018-12-06T18:51:41.408Z,0.00
2018-12-06T18:52:41.395Z,0.00
2018-12-06T18:53:41.654Z,0.00
2018-12-06T18:54:41.373Z,0.00
2018-12-06T18:55:41.363Z,0.00
2018-12-06T18:56:41.351Z,0.00
2018-12-06T18:57:41.341Z,0.00
2018-12-06T18:58:41.329Z,0.00
2018-12-06T18:59:41.408Z,0.00
2018-12-06T19:00:41.306Z,0.00
2018-12-06T19:01:41.296Z,0.00
2018-12-06T19:02:41.284Z,0.00
2018-12-06T19:03:41.274Z,0.00
2018-12-06T19:04:41.274Z,0.00
2018-12-06T19:05:41.253Z,0.00
2018-12-06T19:06:41.241Z,0.00
2018-12-06T19:07:41.230Z,0.00
2018-12-06T19:08:41.220Z,0.00
2018-12-06T19:09:41.209Z,0.00
2018-12-06T19:10:41.200Z,0.00
2018-12-06T19:11:41.188Z,0.00
2018-12-06T19:12:41.175Z,0.00
2018-12-06T19:13:41.164Z,0.00
2018-12-06T19:14:41.153Z,0.00
2018-12-06T19:15:41.150Z,0.00
2018-12-06T19:16:41.130Z,0.00
2018-12-06T19:17:41.118Z,0.00
2018-12-06T19:18:41.108Z,0.00
2018-12-06T19:19:41.098Z,0.00
2018-12-06T19:20:41.087Z,0.00
2018-12-06T19:21:41.077Z,0.00
2018-12-06T19:22:41.064Z,0.00
2018-12-06T19:23:41.056Z,0.00
2018-12-06T19:24:41.043Z,0.00
2018-12-06T19:25:41.030Z,0.00
2018-12-06T19:26:41.032Z,0.00
2018-12-06T19:27:41.009Z,0.00
2018-12-06T19:28:40.997Z,0.00
2018-12-06T19:29:40.986Z,0.00
2018-12-06T19:30:40.975Z,0.00
2018-12-06T19:31:40.970Z,0.00
2018-12-06T19:32:40.956Z,0.00
2018-12-06T19:33:40.943Z,0.00
2018-12-06T19:34:40.931Z,0.00
2018-12-06T19:35:40.921Z,0.00
2018-12-06T19:36:40.909Z,0.00
2018-12-06T19:37:41.220Z,0.00
2018-12-06T19:38:40.887Z,0.00
2018-12-06T19:39:40.875Z,0.00
2018-12-06T19:40:40.865Z,0.00
2018-12-06T19:41:40.853Z,0.00
2018-12-06T19:42:40.843Z,0.00
2018-12-06T19:43:40.836Z,0.00
2018-12-06T19:44:40.823Z,0.00
2018-12-06T19:45:40.813Z,0.00
2018-12-06T19:46:40.799Z,0.00
2018-12-06T19:47:40.789Z,0.00
2018-12-06T19:48:40.787Z,0.00
2018-12-06T19:49:40.767Z,0.00
2018-12-06T19:50:40.754Z,0.00
2018-12-06T19:51:40.743Z,0.00
2018-12-06T19:52:40.732Z,0.00
2018-12-06T19:53:40.725Z,0.00
2018-12-06T19:54:40.714Z,0.00
2018-12-06T19:55:40.700Z,0.00
2018-12-06T19:56:40.688Z,0.00
2018-12-06T19:57:40.677Z,0.00
2018-12-06T19:58:40.665Z,0.00
2018-12-06T19:59:40.668Z,0.00
2018-12-06T20:00:40.645Z,0.00
2018-12-06T20:01:40.633Z,0.00
2018-12-06T20:02:40.622Z,0.00
2018-12-06T20:03:40.610Z,0.00
2018-12-06T20:04:40.599Z,0.00
2018-12-06T20:05:40.591Z,0.00
2018-12-06T20:06:40.577Z,0.00
2018-12-06T20:07:40.567Z,0.00
2018-12-06T20:08:40.555Z,0.00
2018-12-06T20:09:40.545Z,0.00
2018-12-06T20:10:40.555Z,0.00
2018-12-06T20:11:40.522Z,0.00
2018-12-06T20:12:40.516Z,0.00
2018-12-06T20:13:40.500Z,0.00
2018-12-06T20:14:40.489Z,0.00
2018-12-06T20:15:40.495Z,0.00
2018-12-06T20:16:40.470Z,0.00
2018-12-06T20:17:40.456Z,0.00
2018-12-06T20:18:40.444Z,0.00
2018-12-06T20:19:40.435Z,0.00
2018-12-06T20:20:40.428Z,0.00
2018-12-06T20:21:40.423Z,0.00
2018-12-06T20:22:40.402Z,0.00
2018-12-06T20:23:40.390Z,0.00
2018-12-06T20:24:40.381Z,0.00
2018-12-06T20:25:40.370Z,0.00
2018-12-06T20:26:40.357Z,0.00
2018-12-06T20:27:40.348Z,0.00
2018-12-06T20:28:40.335Z,0.00
2018-12-06T20:29:40.326Z,0.00
2018-12-06T20:30:40.311Z,0.00
2018-12-06T20:31:40.301Z,0.00
2018-12-06T20:32:40.296Z,0.00
2018-12-06T20:33:40.279Z,0.00
2018-12-06T20:34:40.268Z,0.00
2018-12-06T20:35:40.256Z,0.00
2018-12-06T20:36:40.247Z,0.00
2018-12-06T20:37:40.234Z,0.00
2018-12-06T20:38:40.225Z,0.00
2018-12-06T20:39:40.214Z,0.00
2018-12-06T20:40:40.202Z,0.00
2018-12-06T20:41:40.190Z,0.00
2018-12-06T20:42:40.180Z,0.00
2018-12-06T20:43:40.176Z,0.00
2018-12-06T20:44:40.158Z,0.00
2018-12-06T20:45:40.146Z,0.00
2018-12-06T20:46:40.135Z,0.00
2018-12-06T20:47:40.124Z,0.00
2018-12-06T20:48:40.113Z,0.00
2018-12-06T20:49:40.106Z,0.00
2018-12-06T20:50:40.090Z,0.00
2018-12-06T20:51:40.079Z,0.00
2018-12-06T20:52:40.070Z,0.00
2018-12-06T20:53:40.060Z,0.00
2018-12-06T20:54:40.054Z,0.00
2018-12-06T20:55:40.036Z,0.00
2018-12-06T20:56:40.025Z,0.00
2018-12-06T20:57:40.014Z,0.00
2018-12-06T20:58:40.002Z,0.00
2018-12-06T20:59:39.991Z,0.00
2018-12-06T21:00:39.982Z,0.00
2018-12-06T21:01:39.971Z,0.00
2018-12-06T21:02:39.958Z,0.00
2018-12-06T21:03:39.947Z,0.00
2018-12-06T21:04:39.938Z,0.00
2018-12-06T21:05:39.933Z,0.00
2018-12-06T21:06:39.915Z,0.00
2018-12-06T21:07:39.903Z,0.00
2018-12-06T21:08:39.891Z,0.00
2018-12-06T21:09:39.882Z,0.00
2018-12-06T21:10:39.870Z,0.00
2018-12-06T21:11:39.862Z,0.00
2018-12-06T21:12:39.847Z,0.00
2018-12-06T21:13:39.837Z,0.00
2018-12-06T21:14:39.826Z,0.00
2018-12-06T21:15:39.816Z,0.00
2018-12-06T21:16:40.110Z,0.00
2018-12-06T21:17:39.793Z,0.00
2018-12-06T21:18:39.781Z,0.00
2018-12-06T21:19:39.770Z,0.00
2018-12-06T21:20:39.759Z,0.00
2018-12-06T21:21:39.749Z,0.00
2018-12-06T21:22:39.740Z,0.00
2018-12-06T21:23:39.726Z,0.00
2018-12-06T21:24:39.715Z,0.00
2018-12-06T21:25:39.704Z,0.00
2018-12-06T21:26:39.694Z,0.00
2018-12-06T21:27:39.710Z,0.00
2018-12-06T21:28:39.671Z,0.00
2018-12-06T21:29:39.660Z,0.00
2018-12-06T21:30:39.649Z,0.00
2018-12-06T21:31:39.639Z,0.00
2018-12-06T21:32:39.626Z,0.00
2018-12-06T21:33:39.617Z,0.00
2018-12-06T21:34:39.609Z,0.00
2018-12-06T21:35:39.594Z,0.00
2018-12-06T21:36:39.583Z,0.00
2018-12-06T21:37:39.574Z,0.00
2018-12-06T21:38:39.568Z,0.00
2018-12-06T21:39:39.550Z,0.00
2018-12-06T21:40:39.539Z,0.00
2018-12-06T21:41:39.527Z,0.00
2018-12-06T21:42:39.520Z,0.00
2018-12-06T21:43:39.505Z,0.00
2018-12-06T21:44:39.496Z,0.00
2018-12-06T21:45:39.484Z,0.00
2018-12-06T21:46:39.472Z,0.00
2018-12-06T21:47:39.465Z,0.00
2018-12-06T21:48:39.450Z,0.00
2018-12-06T21:49:39.767Z,0.00
2018-12-06T21:50:39.428Z,0.00
2018-12-06T21:51:39.418Z,0.00
2018-12-06T21:52:39.407Z,0.00
2018-12-06T21:53:39.394Z,0.00
2018-12-06T21:54:39.383Z,0.00
2018-12-06T21:55:39.381Z,0.00
2018-12-06T21:56:39.363Z,0.00
2018-12-06T21:57:39.350Z,0.00
2018-12-06T21:58:39.341Z,0.00
2018-12-06T21:59:39.329Z,0.00
2018-12-06T22:00:39.340Z,0.00
2018-12-06T22:01:39.306Z,0.00
2018-12-06T22:02:39.297Z,0.00
2018-12-06T22:03:39.283Z,0.00
2018-12-06T22:04:39.335Z,0.00
2018-12-06T22:05:39.267Z,0.00
2018-12-06T22:06:39.259Z,0.00
2018-12-06T22:07:39.241Z,0.00
2018-12-06T22:08:39.228Z,0.00
2018-12-06T22:09:39.227Z,0.00
2018-12-06T22:10:39.207Z,0.00
2018-12-06T22:11:39.202Z,0.00
2018-12-06T22:12:39.185Z,0.00
2018-12-06T22:13:39.174Z,0.00
2018-12-06T22:14:39.165Z,0.00
2018-12-06T22:15:39.154Z,0.00
2018-12-06T22:16:39.142Z,0.00
2018-12-06T22:17:39.130Z,0.00
2018-12-06T22:18:39.121Z,0.00
2018-12-06T22:19:39.107Z,0.00
2018-12-06T22:20:39.099Z,0.00
2018-12-06T22:21:39.084Z,0.00
2018-12-06T22:22:39.397Z,0.00
2018-12-06T22:23:39.063Z,0.00
2018-12-06T22:24:39.050Z,0.00
2018-12-06T22:25:39.041Z,0.00
2018-12-06T22:26:39.029Z,0.00
2018-12-06T22:27:39.020Z,0.00
2018-12-06T22:28:39.010Z,0.00
2018-12-06T22:29:38.996Z,0.00
2018-12-06T22:30:38.985Z,0.00
2018-12-06T22:31:38.981Z,0.00
2018-12-06T22:32:38.963Z,0.00
2018-12-06T22:33:38.959Z,0.00
2018-12-06T22:34:38.941Z,0.00
2018-12-06T22:35:38.929Z,0.00
2018-12-06T22:36:38.919Z,0.00
2018-12-06T22:37:38.908Z,0.00
2018-12-06T22:38:38.904Z,0.00
2018-12-06T22:39:38.887Z,0.00
2018-12-06T22:40:38.874Z,0.00
2018-12-06T22:41:38.864Z,0.00
2018-12-06T22:42:38.852Z,0.00
2018-12-06T22:43:38.842Z,0.00
2018-12-06T22:44:38.838Z,0.00
2018-12-06T22:45:38.819Z,0.00
2018-12-06T22:46:38.810Z,0.00
2018-12-06T22:47:38.797Z,0.00
2018-12-06T22:48:38.787Z,0.00
2018-12-06T22:49:39.235Z,0.00
2018-12-06T22:50:38.767Z,0.00
2018-12-06T22:51:38.754Z,0.00
2018-12-06T22:52:38.748Z,0.00
2018-12-06T22:53:38.731Z,0.00
2018-12-06T22:54:38.719Z,0.00
2018-12-06T22:55:39.039Z,0.00
2018-12-06T22:56:38.698Z,0.00
2018-12-06T22:57:38.687Z,0.00
2018-12-06T22:58:38.675Z,0.00
2018-12-06T22:59:38.663Z,0.00
2018-12-06T23:00:38.652Z,0.00
2018-12-06T23:01:38.644Z,0.00
2018-12-06T23:02:38.639Z,0.00
2018-12-06T23:03:38.620Z,0.00
2018-12-06T23:04:38.608Z,0.00
2018-12-06T23:05:38.599Z,0.00
2018-12-06T23:06:38.593Z,0.00
2018-12-06T23:07:38.578Z,0.00
2018-12-06T23:08:38.565Z,0.00
2018-12-06T23:09:38.552Z,0.00
2018-12-06T23:10:38.542Z,0.00
2018-12-06T23:11:38.537Z,0.00
2018-12-06T23:12:38.522Z,0.00
2018-12-06T23:13:38.512Z,0.00
2018-12-06T23:14:38.497Z,0.00
2018-12-06T23:15:38.486Z,0.00
2018-12-06T23:16:38.475Z,0.00
2018-12-06T23:17:38.471Z,0.00
2018-12-06T23:18:38.495Z,0.00
2018-12-06T23:19:38.442Z,0.00
2018-12-06T23:20:38.431Z,0.00
2018-12-06T23:21:38.420Z,0.00
2018-12-06T23:22:38.409Z,0.00
2018-12-06T23:23:38.401Z,0.00
2018-12-06T23:24:38.386Z,0.00
2018-12-06T23:25:38.376Z,0.00
2018-12-06T23:26:38.365Z,0.00
2018-12-06T23:27:38.355Z,0.00
2018-12-06T23:28:38.666Z,0.00
2018-12-06T23:29:38.334Z,0.00
2018-12-06T23:30:38.320Z,0.00
2018-12-06T23:31:38.309Z,0.00
2018-12-06T23:32:38.298Z,0.00
2018-12-06T23:33:38.287Z,0.00
2018-12-06T23:34:38.281Z,0.00
2018-12-06T23:35:38.265Z,0.00
2018-12-06T23:36:38.254Z,0.00
2018-12-06T23:37:38.243Z,0.00
2018-12-06T23:38:38.232Z,0.00
2018-12-06T23:39:38.229Z,0.00
2018-12-06T23:40:38.209Z,0.00
2018-12-06T23:41:38.199Z,0.00
2018-12-06T23:42:38.188Z,0.00
2018-12-06T23:43:38.177Z,0.00
2018-12-06T23:44:38.170Z,0.00
2018-12-06T23:45:38.157Z,0.00
2018-12-06T23:46:38.143Z,0.00
2018-12-06T23:47:38.133Z,0.00
2018-12-06T23:48:38.122Z,0.00
2018-12-06T23:49:38.111Z,0.00
2018-12-06T23:50:38.106Z,0.00
2018-12-06T23:51:38.089Z,0.00
2018-12-06T23:52:38.077Z,0.00
2018-12-06T23:53:38.067Z,0.00
2018-12-06T23:54:38.055Z,0.00
2018-12-06T23:55:38.044Z,0.00
2018-12-06T23:56:38.036Z,0.00
2018-12-06T23:57:38.022Z,0.00
2018-12-06T23:58:38.011Z,0.00
2018-12-06T23:59:38.000Z,0.00
